Time,TemperatureF,DewpointF,PressureIn,WindDirection,WindDirectionDegrees,WindSpeedMPH,WindSpeedGustMPH,Humidity,HourlyPrecipIn,Conditions,Clouds,dailyrainin,SoftwareType,DateUTC
2013-01-12 00:04:00,61.5,61.5,30.04,ESE,112,6.0,7.0,100,0.00,,,0.00,Wunderground v.1.15,2013-01-12 06:04:00,
2013-01-12 00:10:00,61.4,61.4,30.03,ESE,107,4.0,6.0,100,0.00,,,0.00,Wunderground v.1.15,2013-01-12 06:10:00,
2013-01-12 00:16:00,61.4,61.4,30.04,East,99,4.0,6.0,100,0.00,,,0.00,Wunderground v.1.15,2013-01-12 06:16:00,
2013-01-12 00:22:00,61.4,61.4,30.04,East,101,7.0,7.0,100,0.00,,,0.00,Wunderground v.1.15,2013-01-12 06:22:00,
2013-01-12 00:27:00,61.4,61.4,30.04,East,96,3.0,7.0,100,0.00,,,0.00,Wunderground v.1.15,2013-01-12 06:27:00,
2013-01-12 00:33:00,61.3,61.3,30.04,East,96,5.0,5.0,100,0.00,,,0.00,Wunderground v.1.15,2013-01-12 06:33:00,
2013-01-12 00:39:00,61.4,61.4,30.04,East,96,3.0,6.0,100,0.00,,,0.00,Wunderground v.1.15,2013-01-12 06:39:00,
2013-01-12 00:45:00,61.4,61.4,30.04,East,84,4.0,7.0,100,0.00,,,0.00,Wunderground v.1.15,2013-01-12 06:45:00,
2013-01-12 00:51:00,61.0,61.0,30.04,ESE,104,5.0,7.0,100,0.00,,,0.00,Wunderground v.1.15,2013-01-12 06:51:00,
2013-01-12 00:57:00,60.8,60.8,30.04,ESE,105,3.0,7.0,100,0.00,,,0.00,Wunderground v.1.15,2013-01-12 06:57:00,
2013-01-12 01:03:00,60.7,60.7,30.04,East,101,6.0,6.0,100,0.00,,,0.00,Wunderground v.1.15,2013-01-12 07:03:00,
2013-01-12 01:09:00,60.9,60.9,30.04,East,100,4.0,6.0,100,0.00,,,0.00,Wunderground v.1.15,2013-01-12 07:09:00,
2013-01-12 01:14:00,60.9,60.9,30.04,ESE,113,4.0,6.0,100,0.00,,,0.00,Wunderground v.1.15,2013-01-12 07:14:00,
2013-01-12 01:19:00,60.9,60.9,30.04,ESE,122,3.0,8.0,100,0.00,,,0.00,Wunderground v.1.15,2013-01-12 07:19:00,
2013-01-12 01:25:00,61.0,61.0,30.04,ESE,104,4.0,6.0,100,0.00,,,0.00,Wunderground v.1.15,2013-01-12 07:25:00,
2013-01-12 01:31:00,60.9,60.9,30.04,ESE,111,5.0,5.0,100,0.00,,,0.00,Wunderground v.1.15,2013-01-12 07:31:00,
2013-01-12 01:37:00,61.1,61.1,30.04,East,98,4.0,5.0,100,0.00,,,0.00,Wunderground v.1.15,2013-01-12 07:37:00,
2013-01-12 01:43:00,61.1,61.1,30.04,East,94,0.0,3.0,100,0.00,,,0.00,Wunderground v.1.15,2013-01-12 07:43:00,
2013-01-12 01:49:00,61.1,61.1,30.04,East,100,0.0,3.0,100,0.00,,,0.00,Wunderground v.1.15,2013-01-12 07:49:00,
2013-01-12 01:55:00,61.1,61.1,30.04,East,100,0.0,0.0,100,0.00,,,0.00,Wunderground v.1.15,2013-01-12 07:55:00,
2013-01-12 02:00:00,61.2,61.2,30.04,ENE,68,0.0,0.0,100,0.00,,,0.00,Wunderground v.1.15,2013-01-12 08:00:00,
2013-01-12 02:05:00,61.2,61.2,30.04,ESE,104,0.0,0.0,100,0.00,,,0.00,Wunderground v.1.15,2013-01-12 08:05:00,
2013-01-12 02:10:00,61.2,61.2,30.04,East,98,0.0,0.0,100,0.00,,,0.00,Wunderground v.1.15,2013-01-12 08:10:00,
2013-01-12 02:15:00,61.2,61.2,30.04,ENE,63,0.0,0.0,100,0.00,,,0.00,Wunderground v.1.15,2013-01-12 08:15:00,
2013-01-12 02:20:00,61.2,61.2,30.04,ESE,113,0.0,0.0,100,0.00,,,0.00,Wunderground v.1.15,2013-01-12 08:20:00,
2013-01-12 02:25:00,61.3,61.3,30.04,East,87,0.0,0.0,100,0.00,,,0.00,Wunderground v.1.15,2013-01-12 08:25:00,
2013-01-12 02:30:00,61.3,61.3,30.04,ESE,122,0.0,0.0,100,0.00,,,0.00,Wunderground v.1.15,2013-01-12 08:30:00,
2013-01-12 02:35:00,61.3,61.3,30.04,ESE,115,0.0,0.0,100,0.00,,,0.00,Wunderground v.1.15,2013-01-12 08:35:00,
2013-01-12 02:40:00,61.2,61.2,30.04,ESE,121,0.0,0.0,100,0.00,,,0.00,Wunderground v.1.15,2013-01-12 08:40:00,
2013-01-12 02:45:00,61.1,61.1,30.04,East,100,0.0,0.0,100,0.00,,,0.00,Wunderground v.1.15,2013-01-12 08:45:00,
2013-01-12 02:50:00,61.1,61.1,30.03,ESE,117,0.0,0.0,100,0.00,,,0.00,Wunderground v.1.15,2013-01-12 08:50:00,
2013-01-12 02:55:00,61.1,61.1,30.03,ESE,117,0.0,0.0,100,0.00,,,0.00,Wunderground v.1.15,2013-01-12 08:55:00,
2013-01-12 03:00:00,61.3,61.3,30.03,ESE,104,0.0,0.0,100,0.00,,,0.00,Wunderground v.1.15,2013-01-12 09:00:00,
2013-01-12 03:05:00,61.3,61.3,30.03,East,101,0.0,0.0,100,0.00,,,0.00,Wunderground v.1.15,2013-01-12 09:05:00,
2013-01-12 03:10:00,61.3,61.3,30.03,ESE,110,0.0,0.0,100,0.00,,,0.00,Wunderground v.1.15,2013-01-12 09:10:00,
2013-01-12 03:15:00,61.5,61.5,30.03,East,81,0.0,0.0,100,0.00,,,0.00,Wunderground v.1.15,2013-01-12 09:15:00,
2013-01-12 03:20:00,61.4,61.4,30.03,ESE,117,0.0,0.0,100,0.00,,,0.00,Wunderground v.1.15,2013-01-12 09:20:00,
2013-01-12 03:25:00,61.4,61.4,30.02,ESE,108,0.0,0.0,100,0.00,,,0.00,Wunderground v.1.15,2013-01-12 09:25:00,
2013-01-12 03:30:00,61.4,61.4,30.02,East,100,0.0,0.0,100,0.00,,,0.00,Wunderground v.1.15,2013-01-12 09:30:00,
2013-01-12 03:35:00,61.3,61.3,30.02,ESE,107,0.0,0.0,100,0.00,,,0.00,Wunderground v.1.15,2013-01-12 09:35:00,
2013-01-12 03:40:00,61.3,61.3,30.02,SE,128,0.0,0.0,100,0.00,,,0.00,Wunderground v.1.15,2013-01-12 09:40:00,
2013-01-12 03:45:00,61.3,61.3,30.01,ESE,103,0.0,0.0,100,0.00,,,0.00,Wunderground v.1.15,2013-01-12 09:45:00,
2013-01-12 03:50:00,61.3,61.3,30.01,ESE,104,0.0,0.0,100,0.00,,,0.00,Wunderground v.1.15,2013-01-12 09:50:00,
2013-01-12 03:55:00,61.2,61.2,30.01,SE,125,0.0,0.0,100,0.00,,,0.00,Wunderground v.1.15,2013-01-12 09:55:00,
2013-01-12 04:00:00,61.3,61.3,30.01,ESE,112,0.0,0.0,100,0.00,,,0.00,Wunderground v.1.15,2013-01-12 10:00:00,
2013-01-12 04:05:00,61.3,61.3,30.01,SE,125,0.0,0.0,100,0.00,,,0.00,Wunderground v.1.15,2013-01-12 10:05:00,
2013-01-12 04:10:00,61.3,61.3,30.01,East,79,0.0,0.0,100,0.00,,,0.00,Wunderground v.1.15,2013-01-12 10:10:00,
2013-01-12 04:15:00,61.2,61.2,30.01,ESE,105,0.0,0.0,100,0.00,,,0.00,Wunderground v.1.15,2013-01-12 10:15:00,
2013-01-12 04:20:00,61.3,61.3,30.01,ESE,103,0.0,0.0,100,0.00,,,0.00,Wunderground v.1.15,2013-01-12 10:20:00,
2013-01-12 04:25:00,61.5,61.5,30.01,SE,133,0.0,0.0,100,0.00,,,0.00,Wunderground v.1.15,2013-01-12 10:25:00,
2013-01-12 04:30:00,61.6,61.6,30.01,SE,136,0.0,0.0,100,0.00,,,0.00,Wunderground v.1.15,2013-01-12 10:30:00,
2013-01-12 04:35:00,61.4,61.4,30.01,East,87,0.0,0.0,100,0.00,,,0.00,Wunderground v.1.15,2013-01-12 10:35:00,
2013-01-12 04:40:00,61.2,61.2,30.01,East,98,0.0,0.0,100,0.00,,,0.00,Wunderground v.1.15,2013-01-12 10:40:00,
2013-01-12 04:45:00,61.0,61.0,30.01,SE,128,0.0,0.0,100,0.00,,,0.00,Wunderground v.1.15,2013-01-12 10:45:00,
2013-01-12 04:50:00,61.1,61.1,30.01,East,88,0.0,0.0,100,0.00,,,0.00,Wunderground v.1.15,2013-01-12 10:50:00,
2013-01-12 04:55:00,61.0,61.0,30.01,East,84,0.0,0.0,100,0.00,,,0.00,Wunderground v.1.15,2013-01-12 10:55:00,
2013-01-12 05:00:00,61.3,61.3,30.00,East,96,0.0,0.0,100,0.00,,,0.00,Wunderground v.1.15,2013-01-12 11:00:00,
2013-01-12 05:05:00,61.5,61.5,30.01,ESE,113,0.0,0.0,100,0.00,,,0.00,Wunderground v.1.15,2013-01-12 11:05:00,
2013-01-12 05:10:00,61.2,61.2,30.01,ENE,75,0.0,0.0,100,0.00,,,0.00,Wunderground v.1.15,2013-01-12 11:10:00,
2013-01-12 05:15:00,61.4,61.4,30.01,East,89,0.0,0.0,100,0.00,,,0.00,Wunderground v.1.15,2013-01-12 11:15:00,
2013-01-12 05:20:00,61.4,61.4,30.01,East,94,0.0,0.0,100,0.00,,,0.00,Wunderground v.1.15,2013-01-12 11:20:00,
2013-01-12 05:25:00,61.3,61.3,30.01,ESE,106,0.0,0.0,100,0.00,,,0.00,Wunderground v.1.15,2013-01-12 11:25:00,
2013-01-12 05:30:00,61.1,61.1,30.01,East,89,0.0,0.0,100,0.00,,,0.00,Wunderground v.1.15,2013-01-12 11:30:00,
2013-01-12 05:35:00,61.0,61.0,30.01,East,89,0.0,0.0,100,0.00,,,0.00,Wunderground v.1.15,2013-01-12 11:35:00,
2013-01-12 05:40:00,60.9,60.9,30.02,East,99,0.0,0.0,100,0.00,,,0.00,Wunderground v.1.15,2013-01-12 11:40:00,
2013-01-12 05:45:00,61.1,61.1,30.02,East,94,0.0,0.0,100,0.00,,,0.00,Wunderground v.1.15,2013-01-12 11:45:00,
2013-01-12 05:50:00,61.2,61.2,30.02,East,96,0.0,0.0,100,0.00,,,0.00,Wunderground v.1.15,2013-01-12 11:50:00,
2013-01-12 05:55:00,61.5,61.5,30.02,East,98,0.0,0.0,100,0.00,,,0.00,Wunderground v.1.15,2013-01-12 11:55:00,
2013-01-12 06:00:00,61.4,61.4,30.02,ESE,120,0.0,0.0,100,0.00,,,0.00,Wunderground v.1.15,2013-01-12 12:00:00,
2013-01-12 06:05:00,61.5,61.5,30.03,ESE,120,0.0,0.0,100,0.00,,,0.00,Wunderground v.1.15,2013-01-12 12:05:00,
2013-01-12 06:10:00,61.6,61.6,30.03,East,93,0.0,0.0,100,0.00,,,0.00,Wunderground v.1.15,2013-01-12 12:10:00,
2013-01-12 06:15:00,61.6,61.6,30.03,ESE,103,0.0,0.0,100,0.00,,,0.00,Wunderground v.1.15,2013-01-12 12:15:00,
2013-01-12 06:20:00,61.7,61.7,30.03,East,82,0.0,0.0,100,0.00,,,0.00,Wunderground v.1.15,2013-01-12 12:20:00,
2013-01-12 06:25:00,61.9,61.9,30.03,East,87,0.0,0.0,100,0.00,,,0.00,Wunderground v.1.15,2013-01-12 12:25:00,
2013-01-12 06:30:00,62.0,62.0,30.04,ENE,72,0.0,0.0,100,0.00,,,0.00,Wunderground v.1.15,2013-01-12 12:30:00,
2013-01-12 06:35:00,62.0,62.0,30.04,ENE,76,0.0,0.0,100,0.00,,,0.00,Wunderground v.1.15,2013-01-12 12:35:00,
2013-01-12 06:40:00,62.2,62.2,30.04,ESE,103,0.0,0.0,100,0.00,,,0.00,Wunderground v.1.15,2013-01-12 12:40:00,
2013-01-12 06:45:00,62.2,62.2,30.04,East,98,0.0,0.0,100,0.00,,,0.00,Wunderground v.1.15,2013-01-12 12:45:00,
2013-01-12 06:50:00,62.1,62.1,30.04,ESE,108,0.0,0.0,100,0.00,,,0.00,Wunderground v.1.15,2013-01-12 12:50:00,
2013-01-12 06:55:00,62.1,62.1,30.04,East,96,0.0,0.0,100,0.00,,,0.00,Wunderground v.1.15,2013-01-12 12:55:00,
2013-01-12 07:00:00,62.0,62.0,30.04,East,84,0.0,0.0,100,0.00,,,0.00,Wunderground v.1.15,2013-01-12 13:00:00,
2013-01-12 07:05:00,61.9,61.9,30.04,East,79,0.0,0.0,100,0.00,,,0.00,Wunderground v.1.15,2013-01-12 13:05:00,
2013-01-12 07:10:00,61.9,61.9,30.04,East,88,0.0,0.0,100,0.00,,,0.00,Wunderground v.1.15,2013-01-12 13:10:00,
2013-01-12 07:15:00,62.1,62.1,30.04,ESE,102,0.0,0.0,100,0.00,,,0.00,Wunderground v.1.15,2013-01-12 13:15:00,
2013-01-12 07:20:00,62.0,62.0,30.04,ENE,58,0.0,0.0,100,0.00,,,0.00,Wunderground v.1.15,2013-01-12 13:20:00,
2013-01-12 07:25:00,62.0,62.0,30.04,East,79,0.0,0.0,100,0.00,,,0.00,Wunderground v.1.15,2013-01-12 13:25:00,
2013-01-12 07:30:00,62.0,62.0,30.04,ENE,63,0.0,0.0,100,0.00,,,0.00,Wunderground v.1.15,2013-01-12 13:30:00,
2013-01-12 07:35:00,61.9,61.9,30.04,East,94,0.0,0.0,100,0.00,,,0.00,Wunderground v.1.15,2013-01-12 13:35:00,
2013-01-12 07:40:00,61.9,61.9,30.04,East,86,0.0,0.0,100,0.00,,,0.00,Wunderground v.1.15,2013-01-12 13:40:00,
2013-01-12 07:45:00,62.2,62.2,30.05,East,91,0.0,0.0,100,0.00,,,0.00,Wunderground v.1.15,2013-01-12 13:45:00,
2013-01-12 07:50:00,62.3,62.3,30.05,East,94,0.0,0.0,100,0.00,,,0.00,Wunderground v.1.15,2013-01-12 13:50:00,
2013-01-12 07:55:00,62.3,62.3,30.05,East,92,0.0,0.0,100,0.00,,,0.00,Wunderground v.1.15,2013-01-12 13:55:00,
2013-01-12 08:00:00,62.5,62.5,30.05,ENE,67,0.0,0.0,100,0.00,,,0.00,Wunderground v.1.15,2013-01-12 14:00:00,
2013-01-12 08:05:00,62.3,62.3,30.06,East,97,0.0,0.0,100,0.00,,,0.00,Wunderground v.1.15,2013-01-12 14:05:00,
2013-01-12 08:10:00,62.2,62.2,30.05,East,97,0.0,0.0,100,0.00,,,0.00,Wunderground v.1.15,2013-01-12 14:10:00,
2013-01-12 08:15:00,62.2,62.2,30.06,ESE,110,0.0,0.0,100,0.00,,,0.00,Wunderground v.1.15,2013-01-12 14:15:00,
2013-01-12 08:20:00,62.1,62.1,30.06,East,99,0.0,0.0,100,0.00,,,0.00,Wunderground v.1.15,2013-01-12 14:20:00,
2013-01-12 08:25:00,62.1,62.1,30.06,East,98,0.0,0.0,100,0.00,,,0.00,Wunderground v.1.15,2013-01-12 14:25:00,
2013-01-12 08:30:00,62.0,62.0,30.07,ENE,76,0.0,0.0,100,0.00,,,0.00,Wunderground v.1.15,2013-01-12 14:30:00,
2013-01-12 08:35:00,62.2,62.2,30.07,East,88,0.0,0.0,100,0.00,,,0.00,Wunderground v.1.15,2013-01-12 14:35:00,
2013-01-12 08:40:00,62.6,62.6,30.07,East,95,0.0,0.0,100,0.00,,,0.00,Wunderground v.1.15,2013-01-12 14:40:00,
2013-01-12 08:46:00,62.6,62.6,30.07,ESE,108,0.0,0.0,100,0.00,,,0.00,Wunderground v.1.15,2013-01-12 14:46:00,
2013-01-12 08:51:00,62.6,62.6,30.07,ESE,104,0.0,0.0,100,0.00,,,0.00,Wunderground v.1.15,2013-01-12 14:51:00,
2013-01-12 08:56:00,62.9,62.9,30.06,ESE,107,0.0,0.0,100,0.00,,,0.00,Wunderground v.1.15,2013-01-12 14:56:00,
2013-01-12 09:01:00,63.2,63.2,30.06,East,96,0.0,0.0,100,0.00,,,0.00,Wunderground v.1.15,2013-01-12 15:01:00,
2013-01-12 09:06:00,63.3,63.3,30.06,ESE,115,0.0,0.0,100,0.00,,,0.00,Wunderground v.1.15,2013-01-12 15:06:00,
2013-01-12 09:11:00,63.3,63.3,30.07,East,89,0.0,0.0,100,0.00,,,0.00,Wunderground v.1.15,2013-01-12 15:11:00,
2013-01-12 09:16:00,63.6,63.6,30.07,East,100,0.0,0.0,100,0.00,,,0.00,Wunderground v.1.15,2013-01-12 15:16:00,
2013-01-12 09:21:00,63.4,63.4,30.07,ESE,113,0.0,0.0,100,0.00,,,0.00,Wunderground v.1.15,2013-01-12 15:21:00,
2013-01-12 09:26:00,63.2,63.2,30.07,ESE,113,0.0,0.0,100,0.00,,,0.00,Wunderground v.1.15,2013-01-12 15:26:00,
2013-01-12 09:31:00,63.3,63.3,30.06,East,100,0.0,0.0,100,0.00,,,0.00,Wunderground v.1.15,2013-01-12 15:31:00,
2013-01-12 09:36:00,63.4,63.4,30.06,ESE,113,0.0,0.0,100,0.00,,,0.00,Wunderground v.1.15,2013-01-12 15:36:00,
2013-01-12 09:41:00,63.4,63.4,30.06,ESE,120,0.0,0.0,100,0.00,,,0.00,Wunderground v.1.15,2013-01-12 15:41:00,
2013-01-12 09:46:00,63.5,63.5,30.06,ESE,104,0.0,0.0,100,0.00,,,0.00,Wunderground v.1.15,2013-01-12 15:46:00,
2013-01-12 09:51:00,63.6,63.6,30.06,ESE,118,0.0,0.0,100,0.00,,,0.00,Wunderground v.1.15,2013-01-12 15:51:00,
2013-01-12 09:56:00,63.7,63.7,30.06,ESE,112,0.0,0.0,100,0.00,,,0.00,Wunderground v.1.15,2013-01-12 15:56:00,
2013-01-12 10:00:00,63.5,63.5,30.05,East,98,0.0,0.0,100,0.00,,,0.00,Wunderground v.1.15,2013-01-12 16:00:00,
2013-01-12 10:06:00,63.6,63.6,30.05,ESE,115,0.0,0.0,100,0.00,,,0.00,Wunderground v.1.15,2013-01-12 16:06:00,
2013-01-12 10:11:00,63.6,63.6,30.05,SE,126,0.0,0.0,100,0.00,,,0.00,Wunderground v.1.15,2013-01-12 16:11:00,
2013-01-12 10:16:00,63.7,63.7,30.05,SE,134,0.0,0.0,100,0.00,,,0.00,Wunderground v.1.15,2013-01-12 16:16:00,
2013-01-12 10:21:00,63.7,63.7,30.04,SE,130,0.0,0.0,100,0.00,,,0.00,Wunderground v.1.15,2013-01-12 16:21:00,
2013-01-12 10:26:00,63.8,63.8,30.04,ESE,110,0.0,0.0,100,0.00,,,0.00,Wunderground v.1.15,2013-01-12 16:26:00,
2013-01-12 10:31:00,63.4,63.4,30.04,ESE,108,0.0,0.0,100,0.00,,,0.00,Wunderground v.1.15,2013-01-12 16:31:00,
2013-01-12 10:35:00,62.9,62.9,30.04,SE,128,0.0,0.0,100,0.00,,,0.00,Wunderground v.1.15,2013-01-12 16:35:00,
2013-01-12 10:40:00,62.8,62.8,30.04,SE,129,0.0,0.0,100,0.00,,,0.00,Wunderground v.1.15,2013-01-12 16:40:00,
2013-01-12 10:45:00,62.9,62.9,30.03,ESE,108,0.0,0.0,100,0.00,,,0.00,Wunderground v.1.15,2013-01-12 16:45:00,
2013-01-12 10:50:00,63.0,63.0,30.03,ESE,115,0.0,0.0,100,0.00,,,0.00,Wunderground v.1.15,2013-01-12 16:50:00,
2013-01-12 10:55:00,63.3,63.3,30.03,ESE,122,0.0,0.0,100,0.00,,,0.00,Wunderground v.1.15,2013-01-12 16:55:00,
2013-01-12 11:01:00,63.5,63.5,30.04,ESE,122,0.0,0.0,100,0.00,,,0.00,Wunderground v.1.15,2013-01-12 17:01:00,
2013-01-12 11:06:00,63.7,63.7,30.04,SE,130,0.0,0.0,100,0.00,,,0.00,Wunderground v.1.15,2013-01-12 17:06:00,
2013-01-12 11:11:00,63.3,63.3,30.04,South,169,0.0,0.0,100,0.00,,,0.00,Wunderground v.1.15,2013-01-12 17:11:00,
2013-01-12 11:16:00,63.0,63.0,30.03,ESE,117,0.0,0.0,100,0.00,,,0.00,Wunderground v.1.15,2013-01-12 17:16:00,
2013-01-12 11:21:00,63.0,63.0,30.02,SE,131,0.0,0.0,100,0.00,,,0.00,Wunderground v.1.15,2013-01-12 17:21:00,
2013-01-12 11:26:00,62.8,62.8,30.02,SSE,162,0.0,0.0,100,0.00,,,0.00,Wunderground v.1.15,2013-01-12 17:26:00,
2013-01-12 11:31:00,62.6,62.6,30.02,ESE,115,0.0,0.0,100,0.00,,,0.00,Wunderground v.1.15,2013-01-12 17:31:00,
2013-01-12 11:36:00,62.6,62.6,30.02,ESE,113,0.0,0.0,100,0.00,,,0.00,Wunderground v.1.15,2013-01-12 17:36:00,
2013-01-12 11:41:00,62.9,62.9,30.01,SE,134,0.0,0.0,100,0.00,,,0.00,Wunderground v.1.15,2013-01-12 17:41:00,
2013-01-12 11:46:00,62.8,62.8,30.01,ESE,121,0.0,0.0,100,0.00,,,0.00,Wunderground v.1.15,2013-01-12 17:46:00,
2013-01-12 11:51:00,62.8,62.8,30.01,SSE,155,0.0,0.0,100,0.00,,,0.00,Wunderground v.1.15,2013-01-12 17:51:00,
2013-01-12 11:56:00,63.0,63.0,30.01,SE,136,0.0,0.0,100,0.00,,,0.00,Wunderground v.1.15,2013-01-12 17:56:00,
2013-01-12 12:01:00,63.1,63.1,30.01,SSE,165,0.0,0.0,100,0.00,,,0.00,Wunderground v.1.15,2013-01-12 18:01:00,
2013-01-12 12:06:00,63.0,63.0,30.00,SE,132,0.0,0.0,100,0.00,,,0.00,Wunderground v.1.15,2013-01-12 18:06:00,
2013-01-12 12:12:00,62.8,62.8,30.00,SE,125,0.0,0.0,100,0.00,,,0.00,Wunderground v.1.15,2013-01-12 18:12:00,
2013-01-12 12:17:00,62.7,62.7,30.00,SE,145,0.0,0.0,100,0.00,,,0.00,Wunderground v.1.15,2013-01-12 18:17:00,
2013-01-12 12:22:00,62.6,62.6,30.00,ESE,122,0.0,0.0,100,0.00,,,0.00,Wunderground v.1.15,2013-01-12 18:22:00,
2013-01-12 12:27:00,62.8,62.8,30.00,ESE,120,0.0,0.0,100,0.00,,,0.00,Wunderground v.1.15,2013-01-12 18:27:00,
2013-01-12 12:32:00,62.7,62.7,30.00,South,174,0.0,0.0,100,0.00,,,0.00,Wunderground v.1.15,2013-01-12 18:32:00,
2013-01-12 12:37:00,62.7,62.7,29.99,SE,136,0.0,0.0,100,0.00,,,0.00,Wunderground v.1.15,2013-01-12 18:37:00,
2013-01-12 12:42:00,62.6,62.6,29.99,SE,139,0.0,0.0,100,0.00,,,0.00,Wunderground v.1.15,2013-01-12 18:42:00,
2013-01-12 12:47:00,62.3,62.3,29.99,East,96,0.0,0.0,100,0.00,,,0.00,Wunderground v.1.15,2013-01-12 18:47:00,
2013-01-12 12:52:00,62.4,62.4,30.00,SE,129,0.0,0.0,100,0.00,,,0.00,Wunderground v.1.15,2013-01-12 18:52:00,
2013-01-12 12:57:00,62.6,62.6,30.00,ESE,120,0.0,0.0,100,0.00,,,0.00,Wunderground v.1.15,2013-01-12 18:57:00,
2013-01-12 13:02:00,63.0,63.0,29.99,SE,129,0.0,0.0,100,0.00,,,0.00,Wunderground v.1.15,2013-01-12 19:02:00,
2013-01-12 13:07:00,63.1,63.1,29.99,SE,146,0.0,0.0,100,0.00,,,0.00,Wunderground v.1.15,2013-01-12 19:07:00,
2013-01-12 13:12:00,63.0,63.0,29.99,South,170,0.0,0.0,100,0.00,,,0.00,Wunderground v.1.15,2013-01-12 19:12:00,
2013-01-12 13:17:00,63.0,63.0,29.99,SSE,162,0.0,1.0,100,0.00,,,0.00,Wunderground v.1.15,2013-01-12 19:17:00,
2013-01-12 13:22:00,63.2,63.2,29.99,SE,134,0.0,1.0,100,0.00,,,0.00,Wunderground v.1.15,2013-01-12 19:22:00,
2013-01-12 13:27:00,63.2,63.2,29.98,SE,126,0.0,1.0,100,0.00,,,0.00,Wunderground v.1.15,2013-01-12 19:27:00,
2013-01-12 13:32:00,63.2,63.2,29.98,SSE,152,0.0,1.0,100,0.00,,,0.00,Wunderground v.1.15,2013-01-12 19:32:00,
2013-01-12 13:37:00,63.6,63.6,29.99,ESE,120,0.0,1.0,100,0.00,,,0.00,Wunderground v.1.15,2013-01-12 19:37:00,
2013-01-12 13:42:00,63.5,63.5,29.98,ESE,122,0.0,1.0,100,0.00,,,0.00,Wunderground v.1.15,2013-01-12 19:42:00,
2013-01-12 13:47:00,63.3,63.3,29.98,SSE,162,0.0,5.0,100,0.00,,,0.00,Wunderground v.1.15,2013-01-12 19:47:00,
2013-01-12 13:52:00,63.0,63.0,29.98,SE,136,1.0,5.0,100,0.00,,,0.00,Wunderground v.1.15,2013-01-12 19:52:00,
2013-01-12 13:57:00,63.0,63.0,29.98,ESE,114,0.0,6.0,100,0.00,,,0.00,Wunderground v.1.15,2013-01-12 19:57:00,
2013-01-12 14:02:00,63.1,63.1,29.98,SE,138,1.0,6.0,100,0.00,,,0.00,Wunderground v.1.15,2013-01-12 20:02:00,
2013-01-12 14:07:00,63.2,63.2,29.98,East,89,0.0,6.0,100,0.00,,,0.00,Wunderground v.1.15,2013-01-12 20:07:00,
2013-01-12 14:12:00,63.2,63.2,29.98,SE,128,0.0,7.0,100,0.00,,,0.00,Wunderground v.1.15,2013-01-12 20:12:00,
2013-01-12 14:17:00,63.0,63.0,29.98,ESE,116,1.0,9.0,100,0.00,,,0.00,Wunderground v.1.15,2013-01-12 20:17:00,
2013-01-12 14:22:00,63.1,63.1,29.98,ESE,120,0.0,1.0,100,0.00,,,0.00,Wunderground v.1.15,2013-01-12 20:22:00,
2013-01-12 14:27:00,63.2,63.2,29.98,ESE,120,8.0,8.0,100,0.00,,,0.00,Wunderground v.1.15,2013-01-12 20:27:00,
2013-01-12 14:32:00,63.3,63.3,29.97,ESE,107,1.0,7.0,100,0.00,,,0.00,Wunderground v.1.15,2013-01-12 20:32:00,
2013-01-12 14:37:00,63.4,63.4,29.98,ESE,114,0.0,7.0,100,0.00,,,0.00,Wunderground v.1.15,2013-01-12 20:37:00,
2013-01-12 14:42:00,63.9,63.9,29.97,SE,131,0.0,1.0,100,0.00,,,0.00,Wunderground v.1.15,2013-01-12 20:42:00,
2013-01-12 14:47:00,64.6,64.6,29.98,SE,129,0.0,8.0,100,0.00,,,0.00,Wunderground v.1.15,2013-01-12 20:47:00,
2013-01-12 14:52:00,64.5,64.5,29.97,SE,136,0.0,5.0,100,0.00,,,0.00,Wunderground v.1.15,2013-01-12 20:52:00,
2013-01-12 14:57:00,64.3,64.3,29.97,ESE,108,0.0,5.0,100,0.00,,,0.00,Wunderground v.1.15,2013-01-12 20:57:00,
2013-01-12 15:02:00,64.5,64.5,29.98,SE,136,0.0,1.0,100,0.00,,,0.00,Wunderground v.1.15,2013-01-12 21:02:00,
2013-01-12 15:07:00,64.4,64.4,29.97,ESE,115,0.0,5.0,100,0.00,,,0.00,Wunderground v.1.15,2013-01-12 21:07:00,
2013-01-12 15:12:00,64.8,64.8,29.97,ESE,104,0.0,1.0,100,0.00,,,0.00,Wunderground v.1.15,2013-01-12 21:12:00,
2013-01-12 15:17:00,64.5,64.5,29.97,ESE,116,1.0,1.0,100,0.00,,,0.00,Wunderground v.1.15,2013-01-12 21:17:00,
2013-01-12 15:22:00,64.3,64.3,29.97,ESE,103,0.0,5.0,100,0.00,,,0.00,Wunderground v.1.15,2013-01-12 21:22:00,
2013-01-12 15:27:00,64.1,64.1,29.97,ESE,110,0.0,5.0,100,0.00,,,0.00,Wunderground v.1.15,2013-01-12 21:27:00,
2013-01-12 15:32:00,64.1,64.1,29.97,ESE,107,0.0,5.0,100,0.00,,,0.00,Wunderground v.1.15,2013-01-12 21:32:00,
2013-01-12 15:37:00,64.1,64.1,29.97,East,86,0.0,5.0,100,0.00,,,0.00,Wunderground v.1.15,2013-01-12 21:37:00,
2013-01-12 15:42:00,64.1,64.1,29.98,ESE,102,0.0,1.0,100,0.00,,,0.00,Wunderground v.1.15,2013-01-12 21:42:00,
2013-01-12 15:47:00,64.1,64.1,29.97,ESE,103,0.0,1.0,100,0.00,,,0.00,Wunderground v.1.15,2013-01-12 21:47:00,
2013-01-12 15:52:00,64.0,64.0,29.97,East,94,1.0,6.0,100,0.00,,,0.00,Wunderground v.1.15,2013-01-12 21:52:00,
2013-01-12 15:57:00,63.8,63.8,29.97,ESE,108,0.0,7.0,100,0.00,,,0.00,Wunderground v.1.15,2013-01-12 21:57:00,
2013-01-12 16:02:00,63.7,63.7,29.97,ESE,104,0.0,8.0,100,0.00,,,0.00,Wunderground v.1.15,2013-01-12 22:02:00,
2013-01-12 16:07:00,63.4,63.4,29.97,East,96,0.0,8.0,100,0.00,,,0.00,Wunderground v.1.15,2013-01-12 22:07:00,
2013-01-12 16:12:00,63.3,63.3,29.97,East,82,0.0,6.0,100,0.00,,,0.00,Wunderground v.1.15,2013-01-12 22:12:00,
2013-01-12 16:17:00,63.2,63.2,29.97,East,96,1.0,8.0,100,0.00,,,0.00,Wunderground v.1.15,2013-01-12 22:17:00,
2013-01-12 16:22:00,63.0,63.0,29.97,ESE,122,0.0,8.0,100,0.00,,,0.00,Wunderground v.1.15,2013-01-12 22:22:00,
2013-01-12 16:27:00,62.9,62.9,29.97,SE,125,3.0,8.0,100,0.00,,,0.00,Wunderground v.1.15,2013-01-12 22:27:00,
2013-01-12 16:32:00,63.0,63.0,29.97,East,100,3.0,8.0,100,0.00,,,0.00,Wunderground v.1.15,2013-01-12 22:32:00,
2013-01-12 16:37:00,63.1,63.1,29.97,SE,126,0.0,8.0,100,0.00,,,0.00,Wunderground v.1.15,2013-01-12 22:37:00,
2013-01-12 16:42:00,63.2,63.2,29.96,East,100,0.0,9.0,100,0.00,,,0.00,Wunderground v.1.15,2013-01-12 22:42:00,
2013-01-12 16:47:00,63.2,63.2,29.96,East,94,2.0,9.0,100,0.00,,,0.00,Wunderground v.1.15,2013-01-12 22:47:00,
2013-01-12 16:52:00,63.2,63.2,29.96,SE,146,5.0,9.0,100,0.00,,,0.00,Wunderground v.1.15,2013-01-12 22:52:00,
2013-01-12 16:57:00,63.2,63.2,29.95,East,101,6.0,9.0,100,0.00,,,0.00,Wunderground v.1.15,2013-01-12 22:57:00,
2013-01-12 17:02:00,62.9,62.9,29.96,ESE,116,0.0,7.0,100,0.00,,,0.00,Wunderground v.1.15,2013-01-12 23:02:00,
2013-01-12 17:07:00,62.7,62.7,29.95,ESE,117,0.0,9.0,100,0.00,,,0.00,Wunderground v.1.15,2013-01-12 23:07:00,
2013-01-12 17:12:00,62.6,62.6,29.95,SE,130,0.0,7.0,100,0.00,,,0.00,Wunderground v.1.15,2013-01-12 23:12:00,
2013-01-12 17:17:00,62.5,62.5,29.95,SE,129,3.0,8.0,100,0.00,,,0.00,Wunderground v.1.15,2013-01-12 23:17:00,
2013-01-12 17:22:00,62.4,62.4,29.95,ESE,118,0.0,6.0,100,0.00,,,0.00,Wunderground v.1.15,2013-01-12 23:22:00,
2013-01-12 17:27:00,62.3,62.3,29.95,SE,128,0.0,8.0,100,0.00,,,0.00,Wunderground v.1.15,2013-01-12 23:27:00,
2013-01-12 17:32:00,62.6,62.6,29.95,SE,143,1.0,8.0,100,0.00,,,0.00,Wunderground v.1.15,2013-01-12 23:32:00,
2013-01-12 17:37:00,62.7,62.7,29.96,ESE,110,6.0,10.0,100,0.00,,,0.00,Wunderground v.1.15,2013-01-12 23:37:00,
2013-01-12 17:42:00,62.8,62.8,29.96,ESE,113,0.0,6.0,100,0.00,,,0.00,Wunderground v.1.15,2013-01-12 23:42:00,
2013-01-12 17:47:00,62.7,62.7,29.96,SE,142,1.0,8.0,100,0.00,,,0.00,Wunderground v.1.15,2013-01-12 23:47:00,
2013-01-12 17:52:00,62.5,62.5,29.96,SSE,152,8.0,8.0,100,0.00,,,0.00,Wunderground v.1.15,2013-01-12 23:52:00,
2013-01-12 17:57:00,62.5,62.5,29.97,SE,134,0.0,8.0,100,0.00,,,0.00,Wunderground v.1.15,2013-01-12 23:57:00,
2013-01-12 18:02:00,62.5,62.5,29.97,SE,146,0.0,4.0,100,0.00,,,0.00,Wunderground v.1.15,2013-01-13 00:02:00,
2013-01-12 18:07:00,62.5,62.5,29.96,SE,130,1.0,5.0,100,0.00,,,0.00,Wunderground v.1.15,2013-01-13 00:07:00,
2013-01-12 18:12:00,62.5,62.5,29.96,ESE,120,0.0,4.0,100,0.00,,,0.00,Wunderground v.1.15,2013-01-13 00:12:00,
2013-01-12 18:17:00,62.6,62.6,29.97,SE,134,0.0,5.0,100,0.00,,,0.00,Wunderground v.1.15,2013-01-13 00:17:00,
2013-01-12 18:22:00,62.6,62.6,29.96,SE,138,0.0,4.0,100,0.00,,,0.00,Wunderground v.1.15,2013-01-13 00:22:00,
2013-01-12 18:28:00,62.5,62.5,29.96,SE,129,0.0,5.0,100,0.00,,,0.00,Wunderground v.1.15,2013-01-13 00:28:00,
2013-01-12 18:33:00,62.5,62.5,29.97,SE,129,0.0,5.0,100,0.00,,,0.00,Wunderground v.1.15,2013-01-13 00:33:00,
2013-01-12 18:38:00,62.5,62.5,29.97,SSE,148,1.0,7.0,100,0.00,,,0.00,Wunderground v.1.15,2013-01-13 00:38:00,
2013-01-12 18:43:00,62.4,62.4,29.97,SE,127,6.0,6.0,100,0.00,,,0.00,Wunderground v.1.15,2013-01-13 00:43:00,
2013-01-12 18:48:00,62.3,62.3,29.96,SE,145,0.0,7.0,100,0.00,,,0.00,Wunderground v.1.15,2013-01-13 00:48:00,
2013-01-12 18:53:00,62.1,62.1,29.96,SE,134,1.0,4.0,100,0.00,,,0.00,Wunderground v.1.15,2013-01-13 00:53:00,
2013-01-12 18:58:00,62.1,62.1,29.96,SSE,153,0.0,9.0,100,0.00,,,0.00,Wunderground v.1.15,2013-01-13 00:58:00,
2013-01-12 19:03:00,62.1,62.1,29.96,SE,134,0.0,6.0,100,0.00,,,0.00,Wunderground v.1.15,2013-01-13 01:03:00,
2013-01-12 19:08:00,62.1,62.1,29.95,SE,126,0.0,8.0,100,0.00,,,0.00,Wunderground v.1.15,2013-01-13 01:08:00,
2013-01-12 19:13:00,62.1,62.1,29.94,SE,128,0.0,8.0,100,0.00,,,0.00,Wunderground v.1.15,2013-01-13 01:13:00,
2013-01-12 19:18:00,62.1,62.1,29.95,ESE,120,4.0,10.0,100,0.00,,,0.00,Wunderground v.1.15,2013-01-13 01:18:00,
2013-01-12 19:23:00,62.3,62.3,29.95,SE,141,0.0,9.0,100,0.00,,,0.00,Wunderground v.1.15,2013-01-13 01:23:00,
2013-01-12 19:28:00,62.4,62.4,29.95,SE,134,0.0,10.0,100,0.00,,,0.00,Wunderground v.1.15,2013-01-13 01:28:00,
2013-01-12 19:33:00,62.5,62.5,29.95,SSE,149,0.0,8.0,100,0.00,,,0.00,Wunderground v.1.15,2013-01-13 01:33:00,
2013-01-12 19:38:00,62.5,62.5,29.95,SE,142,0.0,8.0,100,0.00,,,0.00,Wunderground v.1.15,2013-01-13 01:38:00,
2013-01-12 19:43:00,62.7,62.7,29.95,SE,136,0.0,5.0,100,0.00,,,0.00,Wunderground v.1.15,2013-01-13 01:43:00,
2013-01-12 19:48:00,62.6,62.6,29.94,SSE,148,0.0,7.0,100,0.00,,,0.00,Wunderground v.1.15,2013-01-13 01:48:00,
2013-01-12 19:53:00,62.7,62.7,29.94,ESE,122,5.0,8.0,100,0.00,,,0.00,Wunderground v.1.15,2013-01-13 01:53:00,
2013-01-12 19:58:00,62.8,62.8,29.93,ESE,113,0.0,9.0,100,0.00,,,0.00,Wunderground v.1.15,2013-01-13 01:58:00,
2013-01-12 20:03:00,63.0,63.0,29.93,SE,125,0.0,9.0,100,0.00,,,0.00,Wunderground v.1.15,2013-01-13 02:03:00,
2013-01-12 20:08:00,62.9,62.9,29.93,SE,142,1.0,10.0,100,0.00,,,0.00,Wunderground v.1.15,2013-01-13 02:08:00,
2013-01-12 20:13:00,63.0,63.0,29.93,SSE,162,6.0,9.0,100,0.00,,,0.00,Wunderground v.1.15,2013-01-13 02:13:00,
2013-01-12 20:18:00,63.0,63.0,29.93,ESE,122,0.0,9.0,100,0.00,,,0.00,Wunderground v.1.15,2013-01-13 02:18:00,
2013-01-12 20:23:00,62.9,62.9,29.94,ESE,120,0.0,6.0,100,0.00,,,0.00,Wunderground v.1.15,2013-01-13 02:23:00,
2013-01-12 20:28:00,62.9,62.9,29.94,SE,138,1.0,9.0,100,0.00,,,0.00,Wunderground v.1.15,2013-01-13 02:28:00,
2013-01-12 20:33:00,62.9,62.9,29.94,SE,127,5.0,5.0,100,0.00,,,0.00,Wunderground v.1.15,2013-01-13 02:33:00,
2013-01-12 20:38:00,62.8,62.8,29.94,ESE,122,0.0,6.0,100,0.00,,,0.00,Wunderground v.1.15,2013-01-13 02:38:00,
2013-01-12 20:43:00,62.7,62.7,29.94,SE,128,1.0,4.0,100,0.00,,,0.00,Wunderground v.1.15,2013-01-13 02:43:00,
2013-01-12 20:48:00,62.6,62.6,29.94,SE,128,0.0,6.0,100,0.00,,,0.00,Wunderground v.1.15,2013-01-13 02:48:00,
2013-01-12 20:53:00,62.5,62.5,29.94,SSE,150,0.0,6.0,100,0.00,,,0.00,Wunderground v.1.15,2013-01-13 02:53:00,
2013-01-12 20:58:00,62.5,62.5,29.94,SE,136,0.0,8.0,100,0.00,,,0.00,Wunderground v.1.15,2013-01-13 02:58:00,
2013-01-12 21:03:00,62.4,62.4,29.94,ESE,117,0.0,7.0,100,0.00,,,0.00,Wunderground v.1.15,2013-01-13 03:03:00,
2013-01-12 21:08:00,62.5,62.5,29.94,SE,135,0.0,7.0,100,0.00,,,0.00,Wunderground v.1.15,2013-01-13 03:08:00,
2013-01-12 21:13:00,62.4,62.4,29.94,SE,131,0.0,6.0,100,0.00,,,0.00,Wunderground v.1.15,2013-01-13 03:13:00,
2013-01-12 21:18:00,62.5,62.5,29.94,SE,128,0.0,6.0,100,0.00,,,0.00,Wunderground v.1.15,2013-01-13 03:18:00,
2013-01-12 21:23:00,62.5,62.5,29.94,ESE,113,0.0,9.0,100,0.00,,,0.00,Wunderground v.1.15,2013-01-13 03:23:00,
2013-01-12 21:28:00,62.4,62.4,29.94,ESE,122,5.0,9.0,100,0.00,,,0.00,Wunderground v.1.15,2013-01-13 03:28:00,
2013-01-12 21:33:00,62.3,62.3,29.94,SE,138,0.0,7.0,100,0.00,,,0.00,Wunderground v.1.15,2013-01-13 03:33:00,
2013-01-12 21:38:00,62.2,62.2,29.94,ESE,122,0.0,7.0,100,0.00,,,0.00,Wunderground v.1.15,2013-01-13 03:38:00,
2013-01-12 21:43:00,62.3,62.3,29.94,ESE,118,0.0,11.0,100,0.00,,,0.00,Wunderground v.1.15,2013-01-13 03:43:00,
2013-01-12 21:48:00,62.5,62.5,29.94,ESE,118,1.0,11.0,100,0.00,,,0.00,Wunderground v.1.15,2013-01-13 03:48:00,
2013-01-12 21:53:00,62.5,62.5,29.94,SE,125,0.0,6.0,100,0.00,,,0.00,Wunderground v.1.15,2013-01-13 03:53:00,
2013-01-12 21:58:00,62.6,62.6,29.94,ESE,113,0.0,8.0,100,0.00,,,0.00,Wunderground v.1.15,2013-01-13 03:58:00,
2013-01-12 22:03:00,62.7,62.7,29.94,SE,130,0.0,5.0,100,0.00,,,0.00,Wunderground v.1.15,2013-01-13 04:03:00,
2013-01-12 22:08:00,62.5,62.5,29.94,SE,131,3.0,7.0,100,0.00,,,0.00,Wunderground v.1.15,2013-01-13 04:08:00,
2013-01-12 22:13:00,62.4,62.4,29.95,SE,129,0.0,7.0,100,0.00,,,0.00,Wunderground v.1.15,2013-01-13 04:13:00,
2013-01-12 22:18:00,62.7,62.7,29.95,SE,138,0.0,7.0,100,0.00,,,0.00,Wunderground v.1.15,2013-01-13 04:18:00,
2013-01-12 22:23:00,62.7,62.7,29.95,SE,139,0.0,7.0,100,0.00,,,0.00,Wunderground v.1.15,2013-01-13 04:23:00,
2013-01-12 22:28:00,62.4,62.4,29.95,SE,128,0.0,7.0,100,0.00,,,0.00,Wunderground v.1.15,2013-01-13 04:28:00,
2013-01-12 22:33:00,62.4,62.4,29.95,ESE,110,0.0,5.0,100,0.00,,,0.00,Wunderground v.1.15,2013-01-13 04:33:00,
2013-01-12 22:38:00,62.4,62.4,29.95,SE,130,0.0,8.0,100,0.00,,,0.00,Wunderground v.1.15,2013-01-13 04:38:00,
2013-01-12 22:43:00,62.3,62.3,29.94,ESE,116,0.0,8.0,100,0.00,,,0.00,Wunderground v.1.15,2013-01-13 04:43:00,
2013-01-12 22:48:00,62.3,62.3,29.94,SSE,155,0.0,8.0,100,0.00,,,0.00,Wunderground v.1.15,2013-01-13 04:48:00,
2013-01-12 22:53:00,62.3,62.3,29.94,SE,136,0.0,8.0,100,0.00,,,0.00,Wunderground v.1.15,2013-01-13 04:53:00,
2013-01-12 22:58:00,62.5,62.5,29.94,SE,129,1.0,8.0,100,0.00,,,0.00,Wunderground v.1.15,2013-01-13 04:58:00,
2013-01-12 23:00:00,62.5,62.5,29.94,SE,131,0.0,1.0,100,0.00,,,0.00,Wunderground v.1.15,2013-01-13 05:00:00,
2013-01-12 23:02:00,62.5,62.5,29.94,SE,128,1.0,1.0,100,0.00,,,0.00,Wunderground v.1.15,2013-01-13 05:02:00,
2013-01-12 23:03:00,62.4,62.4,29.94,SE,134,0.0,1.0,100,0.00,,,0.00,Wunderground v.1.15,2013-01-13 05:03:00,
2013-01-12 23:08:00,62.4,62.4,29.94,SE,131,5.0,7.0,100,0.00,,,0.00,Wunderground v.1.15,2013-01-13 05:08:00,
2013-01-12 23:13:00,62.4,62.4,29.94,SE,131,0.0,6.0,100,0.00,,,0.00,Wunderground v.1.15,2013-01-13 05:13:00,
2013-01-12 23:18:00,62.4,62.4,29.94,ESE,108,0.0,8.0,100,0.00,,,0.00,Wunderground v.1.15,2013-01-13 05:18:00,
2013-01-12 23:23:00,62.6,62.6,29.94,SE,128,0.0,7.0,100,0.00,,,0.00,Wunderground v.1.15,2013-01-13 05:23:00,
2013-01-12 23:28:00,62.6,62.6,29.94,SE,136,1.0,7.0,100,0.00,,,0.00,Wunderground v.1.15,2013-01-13 05:28:00,
2013-01-12 23:33:00,62.7,62.7,29.94,SE,142,1.0,9.0,100,0.00,,,0.00,Wunderground v.1.15,2013-01-13 05:33:00,
2013-01-12 23:38:00,62.8,62.8,29.94,SE,132,0.0,9.0,100,0.00,,,0.00,Wunderground v.1.15,2013-01-13 05:38:00,
2013-01-12 23:43:00,62.7,62.7,29.94,SE,132,0.0,6.0,100,0.00,,,0.00,Wunderground v.1.15,2013-01-13 05:43:00,
2013-01-12 23:48:00,62.6,62.6,29.94,SE,134,0.0,7.0,100,0.00,,,0.00,Wunderground v.1.15,2013-01-13 05:48:00,
2013-01-12 23:53:00,62.8,62.8,29.94,SSE,150,0.0,7.0,100,0.00,,,0.00,Wunderground v.1.15,2013-01-13 05:53:00,
2013-01-12 23:58:00,62.8,62.8,29.94,SE,132,0.0,7.0,100,0.00,,,0.00,Wunderground v.1.15,2013-01-13 05:58:00,